createdAt,value
2022-11-16T00:01:34.255Z,-1.64
2022-11-16T00:04:02.806Z,-1.70
2022-11-16T00:06:29.795Z,-1.75
2022-11-16T00:09:18.237Z,-1.76
2022-11-16T00:11:45.679Z,-1.76
2022-11-16T00:14:12.499Z,-1.77
2022-11-16T00:16:39.587Z,-1.79
2022-11-16T00:19:07.103Z,-1.71
2022-11-16T00:21:34.123Z,-1.69
2022-11-16T00:24:02.430Z,-1.70
2022-11-16T00:26:29.278Z,-1.70
2022-11-16T00:28:56.642Z,-1.65
2022-11-16T00:31:24.905Z,-1.73
2022-11-16T00:33:52.147Z,-1.75
2022-11-16T00:36:18.902Z,-1.71
2022-11-16T00:38:46.468Z,-1.70
2022-11-16T00:41:13.208Z,-1.68
2022-11-16T00:43:39.877Z,-1.71
2022-11-16T00:46:07.383Z,-1.69
2022-11-16T00:48:34.213Z,-1.79
2022-11-16T00:51:01.186Z,-1.80
2022-11-16T00:53:28.692Z,-2.06
2022-11-16T00:55:55.400Z,-1.89
2022-11-16T00:58:22.154Z,-1.87
2022-11-16T01:00:50.000Z,-1.96
2022-11-16T01:03:16.717Z,-1.95
2022-11-16T01:05:43.728Z,-1.97
2022-11-16T01:08:10.618Z,-2.06
2022-11-16T01:10:39.907Z,-2.05
2022-11-16T01:13:07.386Z,-2.10
2022-11-16T01:15:34.660Z,-2.16
2022-11-16T01:18:01.294Z,-2.22
2022-11-16T01:20:29.711Z,-2.35
2022-11-16T01:22:56.668Z,-2.39
2022-11-16T01:25:23.339Z,-2.52
2022-11-16T01:27:50.171Z,-2.55
2022-11-16T01:30:17.252Z,-2.73
2022-11-16T01:32:43.924Z,-2.71
2022-11-16T01:35:16.047Z,-2.74
2022-11-16T01:37:42.919Z,-2.80
2022-11-16T01:40:11.089Z,-2.88
2022-11-16T01:42:37.917Z,-2.97
2022-11-16T01:45:24.729Z,-2.99
2022-11-16T01:47:53.163Z,-2.92
2022-11-16T01:50:19.985Z,-2.96
2022-11-16T01:52:54.471Z,-3.03
2022-11-16T01:55:23.263Z,-3.11
2022-11-16T01:57:51.132Z,-3.10
2022-11-16T02:00:18.730Z,-3.35
2022-11-16T02:02:45.800Z,-3.21
2022-11-16T02:05:15.861Z,-3.36
2022-11-16T02:08:23.146Z,-3.34
2022-11-16T02:11:13.960Z,-3.43
2022-11-16T02:13:46.470Z,-3.55
2022-11-16T02:16:41.007Z,-3.61
2022-11-16T02:19:11.784Z,-3.74
2022-11-16T02:22:00.948Z,-3.80
2022-11-16T02:24:28.362Z,-3.82
2022-11-16T02:27:17.924Z,-3.87
2022-11-16T02:29:53.648Z,-3.99
2022-11-16T02:32:29.642Z,-3.98
2022-11-16T02:35:05.787Z,-4.07
2022-11-16T02:37:37.176Z,-4.08
2022-11-16T02:40:08.875Z,-4.18
2022-11-16T02:42:41.477Z,-4.19
2022-11-16T02:45:12.795Z,-4.32
2022-11-16T02:47:42.122Z,-4.24
2022-11-16T02:50:16.345Z,-4.30
2022-11-16T02:52:42.987Z,-4.29
2022-11-16T02:55:12.638Z,-4.49
2022-11-16T02:57:54.119Z,-4.38
2022-11-16T03:00:27.121Z,-4.37
2022-11-16T03:03:11.583Z,-4.38
2022-11-16T03:06:11.514Z,-4.41
2022-11-16T03:08:42.830Z,-4.56
2022-11-16T03:11:29.819Z,-4.51
2022-11-16T03:14:04.131Z,-4.68
2022-11-16T03:16:35.118Z,-4.48
2022-11-16T03:19:08.264Z,-4.39
2022-11-16T03:21:43.801Z,-4.36
2022-11-16T03:24:10.681Z,-4.33
2022-11-16T03:27:05.476Z,-4.30
2022-11-16T03:29:39.989Z,-4.24
2022-11-16T03:32:41.699Z,-4.17
2022-11-16T03:35:18.590Z,-4.20
2022-11-16T03:37:48.022Z,-4.16
2022-11-16T03:40:17.160Z,-4.29
2022-11-16T03:42:45.795Z,-4.20
2022-11-16T03:45:14.107Z,-4.35
2022-11-16T03:47:42.053Z,-4.22
2022-11-16T03:50:09.940Z,-4.28
2022-11-16T03:52:36.861Z,-4.28
2022-11-16T03:55:04.650Z,-4.29
2022-11-16T03:57:31.286Z,-4.32
2022-11-16T03:59:57.867Z,-4.33
2022-11-16T04:02:24.451Z,-4.31
2022-11-16T04:05:09.917Z,-4.30
2022-11-16T04:07:56.139Z,-4.31
2022-11-16T04:10:41.085Z,-4.42
2022-11-16T04:13:30.511Z,-4.27
2022-11-16T04:16:15.677Z,-4.16
2022-11-16T04:19:00.855Z,-4.15
2022-11-16T04:22:00.680Z,-4.10
2022-11-16T04:24:30.487Z,-4.10
2022-11-16T04:27:19.351Z,-4.05
2022-11-16T04:29:48.393Z,-4.04
2022-11-16T04:32:44.980Z,-4.13
2022-11-16T04:35:46.899Z,-4.06
2022-11-16T04:38:15.119Z,-3.97
2022-11-16T04:40:41.717Z,-3.94
2022-11-16T04:43:08.643Z,-4.02
2022-11-16T04:45:54.986Z,-4.18
2022-11-16T04:48:21.983Z,-3.96
2022-11-16T04:50:48.702Z,-3.92
2022-11-16T04:53:16.005Z,-3.84
2022-11-16T04:55:42.619Z,-3.82
2022-11-16T04:58:10.887Z,-3.69
2022-11-16T05:00:37.987Z,-3.64
2022-11-16T05:03:05.370Z,-3.56
2022-11-16T05:05:31.980Z,-3.63
2022-11-16T05:07:59.413Z,-3.48
2022-11-16T05:10:26.277Z,-3.49
2022-11-16T05:12:52.881Z,-3.30
2022-11-16T05:15:20.038Z,-3.19
2022-11-16T05:17:47.397Z,-3.07
2022-11-16T05:20:33.039Z,-3.01
2022-11-16T05:22:59.701Z,-2.92
2022-11-16T05:25:26.850Z,-2.91
2022-11-16T05:27:55.056Z,-2.81
2022-11-16T05:30:21.765Z,-2.74
2022-11-16T05:32:48.384Z,-2.66
2022-11-16T05:35:15.852Z,-2.56
2022-11-16T05:37:42.456Z,-2.48
2022-11-16T05:40:09.597Z,-2.46
2022-11-16T05:42:40.004Z,-2.46
2022-11-16T05:45:07.015Z,-2.44
2022-11-16T05:47:33.609Z,-2.40
2022-11-16T05:50:00.288Z,-2.39
2022-11-16T05:52:26.847Z,-2.50
2022-11-16T05:54:53.433Z,-2.27
2022-11-16T05:57:20.828Z,-2.22
2022-11-16T05:59:47.430Z,-2.14
2022-11-16T06:02:14.595Z,-2.02
2022-11-16T06:04:42.095Z,-1.97
2022-11-16T06:07:08.731Z,-1.88
2022-11-16T06:09:35.445Z,-1.79
2022-11-16T06:12:02.070Z,-1.82
2022-11-16T06:14:28.644Z,-1.62
2022-11-16T06:16:55.227Z,-1.55
2022-11-16T06:19:22.732Z,-1.52
2022-11-16T06:21:49.364Z,-1.49
2022-11-16T06:24:16.029Z,-1.51
2022-11-16T06:26:42.731Z,-1.37
2022-11-16T06:29:10.424Z,-1.44
2022-11-16T06:31:37.035Z,-1.47
2022-11-16T06:34:03.695Z,-1.45
2022-11-16T06:36:30.336Z,-1.31
2022-11-16T06:39:00.308Z,-1.23
2022-11-16T06:41:27.901Z,-1.29
2022-11-16T06:43:54.486Z,-1.16
2022-11-16T06:46:21.293Z,-1.17
2022-11-16T06:48:47.951Z,-1.08
2022-11-16T06:51:14.567Z,-1.01
2022-11-16T06:53:41.190Z,-1.01
2022-11-16T06:56:08.144Z,-0.92
2022-11-16T06:58:35.101Z,-0.93
2022-11-16T07:01:09.936Z,-0.98
2022-11-16T07:03:36.590Z,-0.98
2022-11-16T07:06:12.475Z,-0.93
2022-11-16T07:08:39.253Z,-0.84
2022-11-16T07:11:07.555Z,-0.78
2022-11-16T07:13:38.080Z,-0.75
2022-11-16T07:16:06.972Z,-0.70
2022-11-16T07:18:35.945Z,-0.68
2022-11-16T07:21:11.470Z,-0.83
2022-11-16T07:23:38.350Z,-1.06
2022-11-16T07:26:07.576Z,-1.25
2022-11-16T07:28:35.614Z,-1.38
2022-11-16T07:31:08.478Z,-1.37
2022-11-16T07:33:35.930Z,-1.26
2022-11-16T07:36:07.781Z,-1.03
2022-11-16T07:38:35.006Z,-0.80
2022-11-16T07:41:03.348Z,-0.67
2022-11-16T07:43:37.257Z,-0.59
2022-11-16T07:46:44.714Z,-0.46
2022-11-16T07:48:54.768Z,-0.46
2022-11-16T07:51:21.323Z,-0.39
2022-11-16T07:53:47.914Z,-0.57
2022-11-16T07:56:14.541Z,-0.72
2022-11-16T07:58:41.123Z,-0.82
2022-11-16T08:01:13.415Z,-0.96
2022-11-16T08:03:42.232Z,-1.01
2022-11-16T08:06:13.188Z,-0.98
2022-11-16T08:08:40.204Z,-0.93
2022-11-16T08:11:10.716Z,-0.91
2022-11-16T08:13:39.804Z,-0.95
2022-11-16T08:16:11.015Z,-0.89
2022-11-16T08:18:39.678Z,-0.80
2022-11-16T08:21:08.094Z,-0.84
2022-11-16T08:23:35.149Z,-0.42
2022-11-16T08:26:04.354Z,-0.18
2022-11-16T08:28:34.775Z,0.06
2022-11-16T08:31:11.586Z,0.23
2022-11-16T08:33:38.466Z,0.46
2022-11-16T08:36:12.569Z,0.65
2022-11-16T08:38:41.520Z,0.81
2022-11-16T08:41:08.160Z,0.68
2022-11-16T08:43:35.940Z,0.82
2022-11-16T08:46:03.379Z,0.90
2022-11-16T08:48:30.674Z,0.79
2022-11-16T08:51:17.341Z,0.63
2022-11-16T08:53:48.155Z,0.60
2022-11-16T08:56:17.361Z,0.59
2022-11-16T08:58:44.411Z,0.58
2022-11-16T09:01:15.649Z,0.72
2022-11-16T09:03:42.543Z,1.41
2022-11-16T09:06:10.413Z,1.23
2022-11-16T09:08:38.637Z,1.05
2022-11-16T09:11:10.055Z,0.93
2022-11-16T09:13:37.044Z,1.19
2022-11-16T09:16:04.689Z,1.59
2022-11-16T09:18:32.006Z,1.52
2022-11-16T09:20:58.973Z,1.69
2022-11-16T09:23:25.936Z,1.70
2022-11-16T09:25:56.190Z,1.72
2022-11-16T09:28:23.798Z,1.56
2022-11-16T09:30:51.365Z,1.45
2022-11-16T09:33:18.499Z,1.41
2022-11-16T09:35:45.292Z,1.35
2022-11-16T09:38:16.012Z,1.18
2022-11-16T09:40:48.435Z,1.09
2022-11-16T09:43:45.633Z,1.09
2022-11-16T09:46:29.546Z,0.83
2022-11-16T09:49:02.425Z,0.93
2022-11-16T09:51:33.885Z,0.97
2022-11-16T09:54:23.099Z,1.18
2022-11-16T09:56:54.662Z,1.45
2022-11-16T09:59:27.687Z,1.46
2022-11-16T10:01:59.570Z,1.55
2022-11-16T10:04:43.886Z,1.46
2022-11-16T10:07:20.260Z,1.30
2022-11-16T10:09:47.791Z,1.45
2022-11-16T10:12:40.206Z,1.71
2022-11-16T10:15:18.808Z,1.68
2022-11-16T10:18:20.707Z,1.81
2022-11-16T10:21:07.358Z,1.83
2022-11-16T10:23:50.007Z,1.60
2022-11-16T10:26:19.207Z,1.13
2022-11-16T10:29:10.341Z,0.89
2022-11-16T10:31:51.597Z,0.63
2022-11-16T10:34:37.776Z,0.40
2022-11-16T10:37:08.519Z,0.36
2022-11-16T10:39:40.407Z,0.41
2022-11-16T10:42:13.454Z,0.55
2022-11-16T10:44:45.641Z,0.78
2022-11-16T10:47:19.008Z,0.98
2022-11-16T10:49:59.574Z,1.15
2022-11-16T10:52:26.558Z,1.26
2022-11-16T10:54:53.475Z,1.34
2022-11-16T10:57:20.616Z,1.44
2022-11-16T10:59:50.154Z,1.40
2022-11-16T11:02:37.406Z,1.42
2022-11-16T11:05:07.039Z,1.09
2022-11-16T11:07:40.049Z,0.64
2022-11-16T11:10:30.431Z,0.17
2022-11-16T11:13:04.586Z,-0.14
2022-11-16T11:15:31.333Z,-0.03
2022-11-16T11:18:22.238Z,0.06
2022-11-16T11:20:51.157Z,0.22
2022-11-16T11:23:25.527Z,0.24
2022-11-16T11:25:55.268Z,1.49
2022-11-16T11:28:32.041Z,2.39
2022-11-16T11:31:11.714Z,1.98
2022-11-16T11:33:48.405Z,1.16
2022-11-16T11:36:35.336Z,0.48
2022-11-16T11:39:07.687Z,0.94
2022-11-16T11:41:39.925Z,0.85
2022-11-16T11:44:15.779Z,0.48
2022-11-16T11:50:08.406Z,1.38
2022-11-16T11:52:44.631Z,2.95
2022-11-16T11:55:15.646Z,4.47
2022-11-16T11:57:46.282Z,5.71
2022-11-16T12:00:14.977Z,6.25
2022-11-16T12:03:19.925Z,6.91
2022-11-16T12:05:58.010Z,7.34
2022-11-16T12:08:35.412Z,7.18
2022-11-16T12:11:08.104Z,6.91
2022-11-16T12:14:14.787Z,7.02
2022-11-16T12:16:53.250Z,7.03
2022-11-16T12:20:00.818Z,6.88
2022-11-16T12:22:45.293Z,6.95
2022-11-16T12:25:25.709Z,6.30
2022-11-16T12:28:25.798Z,5.38
2022-11-16T12:31:17.185Z,4.19
2022-11-16T12:33:55.893Z,2.92
2022-11-16T12:36:39.882Z,2.22
2022-11-16T12:39:12.580Z,1.65
2022-11-16T12:41:48.725Z,1.23
2022-11-16T12:44:27.409Z,0.81
2022-11-16T12:47:31.453Z,0.39
2022-11-16T12:50:08.106Z,0.15
2022-11-16T12:53:02.493Z,-0.06
2022-11-16T12:55:49.589Z,-0.38
2022-11-16T12:58:19.052Z,-0.63
2022-11-16T13:00:50.727Z,-0.74
2022-11-16T13:03:29.526Z,-0.88
2022-11-16T13:06:03.589Z,-0.89
2022-11-16T13:08:52.791Z,-0.94
2022-11-16T13:11:42.492Z,-0.92
2022-11-16T13:14:21.018Z,-1.02
2022-11-16T13:16:49.278Z,-1.04
2022-11-16T13:19:18.101Z,-1.05
2022-11-16T13:22:10.723Z,-1.10
2022-11-16T13:24:49.288Z,-1.12
2022-11-16T13:27:49.812Z,-1.13
2022-11-16T13:30:22.545Z,-1.10
2022-11-16T13:33:11.252Z,-1.16
2022-11-16T13:35:38.952Z,-1.22
2022-11-16T13:38:13.096Z,-1.21
2022-11-16T13:40:40.943Z,-1.24
2022-11-16T13:43:16.551Z,-1.24
2022-11-16T13:45:43.083Z,-1.24
2022-11-16T13:48:20.578Z,-1.29
2022-11-16T13:50:51.052Z,-1.41
2022-11-16T13:54:44.434Z,-1.37
2022-11-16T13:57:21.217Z,-1.44
2022-11-16T14:00:03.685Z,-1.51
2022-11-16T14:02:35.065Z,-1.45
2022-11-16T14:05:13.726Z,-1.37
2022-11-16T14:07:47.480Z,-1.33
2022-11-16T14:10:35.883Z,-1.30
2022-11-16T14:13:04.522Z,-1.33
2022-11-16T14:15:47.625Z,-1.37
2022-11-16T14:18:33.420Z,-1.34
2022-11-16T14:24:32.534Z,-1.34
2022-11-16T14:27:06.453Z,-1.27
2022-11-16T14:30:02.722Z,-1.24
2022-11-16T14:32:42.411Z,-1.28
2022-11-16T14:35:29.633Z,-1.35
2022-11-16T14:42:24.519Z,-1.39
2022-11-16T14:45:09.766Z,-1.27
2022-11-16T14:47:41.753Z,-1.31
2022-11-16T14:50:47.909Z,-1.29
2022-11-16T14:53:20.448Z,-1.32
2022-11-16T14:55:47.130Z,-1.32
2022-11-16T14:58:34.707Z,-1.40
2022-11-16T15:01:04.337Z,-1.45
2022-11-16T15:03:43.870Z,-1.51
2022-11-16T15:06:10.624Z,-1.56
2022-11-16T15:08:43.972Z,-1.62
2022-11-16T15:11:22.489Z,-1.60
2022-11-16T15:14:00.904Z,-1.61
2022-11-16T15:16:27.529Z,-1.59
2022-11-16T15:19:03.754Z,-1.66
2022-11-16T15:21:30.383Z,-1.62
2022-11-16T15:26:43.980Z,-1.73
2022-11-16T15:29:17.230Z,-1.78
2022-11-16T15:31:52.995Z,-1.89
2022-11-16T15:34:20.225Z,-1.94
2022-11-16T15:36:47.680Z,-1.97
2022-11-16T15:39:28.601Z,-2.05
2022-11-16T15:42:00.387Z,-2.05
2022-11-16T15:44:36.942Z,-2.11
2022-11-16T15:47:04.038Z,-2.15
2022-11-16T15:49:38.184Z,-2.15
2022-11-16T15:52:06.127Z,-2.22
2022-11-16T15:54:52.900Z,-2.19
2022-11-16T15:57:20.290Z,-2.21
2022-11-16T15:59:55.544Z,-2.32
2022-11-16T16:02:25.010Z,-2.23
2022-11-16T16:04:51.869Z,-2.20
2022-11-16T16:07:44.365Z,-2.16
2022-11-16T16:10:32.608Z,-2.14
2022-11-16T16:13:01.730Z,-2.17
2022-11-16T16:15:31.270Z,-2.13
2022-11-16T16:17:59.031Z,-2.07
2022-11-16T16:20:29.700Z,-2.05
2022-11-16T16:23:12.985Z,-2.11
2022-11-16T16:25:44.750Z,-2.04
2022-11-16T16:28:14.441Z,-2.00
2022-11-16T16:30:41.155Z,-2.18
2022-11-16T16:33:21.078Z,-2.17
2022-11-16T16:35:49.896Z,-2.13
2022-11-16T16:38:16.624Z,-2.25
2022-11-16T16:40:43.280Z,-2.08
2022-11-16T16:43:11.232Z,-2.07
2022-11-16T16:45:43.599Z,-2.08
2022-11-16T16:48:12.750Z,-2.12
2022-11-16T16:50:44.951Z,-2.53
2022-11-16T16:53:13.348Z,-2.16
2022-11-16T16:55:51.786Z,-2.22
2022-11-16T16:58:20.644Z,-2.22
2022-11-16T17:00:56.923Z,-2.19
2022-11-16T17:03:42.307Z,-2.21
2022-11-16T17:06:08.931Z,-2.28
2022-11-16T17:08:37.012Z,-2.31
2022-11-16T17:11:07.158Z,-2.40
2022-11-16T17:13:34.095Z,-2.44
2022-11-16T17:16:07.158Z,-2.41
2022-11-16T17:18:36.326Z,-2.50
2022-11-16T17:21:07.744Z,-2.53
2022-11-16T17:23:35.365Z,-2.62
2022-11-16T17:26:09.797Z,-2.63
2022-11-16T17:28:40.407Z,-2.62
2022-11-16T17:31:09.211Z,-2.63
2022-11-16T17:33:38.182Z,-2.65
2022-11-16T17:36:06.054Z,-2.71
2022-11-16T17:38:43.541Z,-2.74
2022-11-16T17:41:15.891Z,-3.03
2022-11-16T17:43:46.423Z,-3.25
2022-11-16T17:46:18.090Z,-2.95
2022-11-16T17:48:47.323Z,-3.01
2022-11-16T17:51:16.699Z,-3.02
2022-11-16T17:53:46.457Z,-3.08
2022-11-16T17:56:14.942Z,-3.03
2022-11-16T17:58:41.971Z,-3.26
2022-11-16T18:01:22.608Z,-3.20
2022-11-16T18:04:09.456Z,-3.05
2022-11-16T18:06:36.258Z,-3.06
2022-11-16T18:09:04.831Z,-3.15
2022-11-16T18:11:31.465Z,-3.11
2022-11-16T18:14:06.397Z,-3.26
2022-11-16T18:16:33.872Z,-3.26
2022-11-16T18:19:04.942Z,-3.26
2022-11-16T18:22:08.732Z,-3.40
2022-11-16T18:24:33.631Z,-3.44
2022-11-16T18:27:00.293Z,-3.44
2022-11-16T18:29:32.248Z,-3.56
2022-11-16T18:32:00.107Z,-3.47
2022-11-16T18:34:26.799Z,-3.49
2022-11-16T18:36:53.563Z,-3.30
2022-11-16T18:39:20.143Z,-3.24
2022-11-16T18:41:51.801Z,-3.18
2022-11-16T18:44:21.352Z,-3.11
2022-11-16T18:46:47.932Z,-2.98
2022-11-16T18:49:17.067Z,-2.90
2022-11-16T18:51:43.715Z,-2.89
2022-11-16T18:54:13.582Z,-2.87
2022-11-16T18:59:35.647Z,-2.82
2022-11-16T19:02:10.646Z,-2.82
2022-11-16T19:04:40.304Z,-2.78
2022-11-16T19:07:07.838Z,-2.81
2022-11-16T19:09:35.350Z,-2.83
2022-11-16T19:12:04.775Z,-3.19
2022-11-16T19:14:34.316Z,-2.88
2022-11-16T19:17:01.838Z,-3.08
2022-11-16T19:19:29.868Z,-3.22
2022-11-16T19:21:57.089Z,-3.00
2022-11-16T19:24:25.355Z,-3.08
2022-11-16T19:26:51.990Z,-3.25
2022-11-16T19:29:19.430Z,-3.16
2022-11-16T19:32:10.405Z,-3.17
2022-11-16T19:34:37.062Z,-3.32
2022-11-16T19:43:59.902Z,-3.72
2022-11-16T19:46:28.726Z,-3.74
2022-11-16T19:48:56.421Z,-3.87
2022-11-16T19:51:25.484Z,-3.95
2022-11-16T19:53:52.461Z,-4.02
2022-11-16T19:56:20.481Z,-4.08
2022-11-16T19:58:48.066Z,-4.04
2022-11-16T20:01:18.966Z,-3.95
2022-11-16T20:03:47.463Z,-3.96
2022-11-16T20:06:20.854Z,-3.90
2022-11-16T20:08:56.277Z,-3.84
2022-11-16T20:11:26.475Z,-3.89
2022-11-16T20:13:55.110Z,-3.97
2022-11-16T20:16:26.083Z,-3.71
2022-11-16T20:18:53.439Z,-3.63
2022-11-16T20:21:33.148Z,-3.58
2022-11-16T20:24:06.332Z,-3.50
2022-11-16T20:26:34.778Z,-3.43
2022-11-16T20:29:02.511Z,-3.41
2022-11-16T20:31:31.099Z,-3.44
2022-11-16T20:34:01.918Z,-3.38
2022-11-16T20:36:30.689Z,-3.43
2022-11-16T20:38:59.228Z,-3.32
2022-11-16T20:41:28.376Z,-3.34
2022-11-16T20:43:56.827Z,-3.32
2022-11-16T20:46:26.749Z,-3.37
2022-11-16T20:48:54.608Z,-3.64
2022-11-16T20:51:21.304Z,-3.41
2022-11-16T20:53:50.094Z,-3.56
2022-11-16T20:56:19.223Z,-3.53
2022-11-16T20:58:46.749Z,-3.56
2022-11-16T21:01:19.520Z,-3.66
2022-11-16T21:03:48.990Z,-3.64
2022-11-16T21:06:15.890Z,-3.74
2022-11-16T21:08:42.562Z,-3.73
2022-11-16T21:11:14.539Z,-3.78
2022-11-16T21:13:59.824Z,-3.76
2022-11-16T21:16:26.744Z,-3.77
2022-11-16T21:18:54.652Z,-3.75
2022-11-16T21:21:21.683Z,-3.80
2022-11-16T21:23:55.114Z,-4.03
2022-11-16T21:26:29.745Z,-3.89
2022-11-16T21:28:58.567Z,-3.92
2022-11-16T21:31:33.712Z,-3.97
2022-11-16T21:34:01.172Z,-3.98
2022-11-16T21:36:30.498Z,-4.03
2022-11-16T21:38:58.225Z,-4.04
2022-11-16T21:41:25.799Z,-4.04
2022-11-16T21:43:52.473Z,-3.97
2022-11-16T21:46:26.927Z,-3.91
2022-11-16T21:48:55.472Z,-3.93
2022-11-16T21:51:26.926Z,-3.85
2022-11-16T21:53:54.391Z,-3.88
2022-11-16T21:56:25.918Z,-3.88
2022-11-16T21:58:53.436Z,-3.78
2022-11-16T22:01:22.671Z,-3.71
2022-11-16T22:04:09.638Z,-3.89
2022-11-16T22:06:55.079Z,-3.69
2022-11-16T22:09:21.888Z,-3.64
2022-11-16T22:11:48.513Z,-3.65
2022-11-16T22:14:15.668Z,-3.63
2022-11-16T22:16:42.337Z,-3.57
2022-11-16T22:19:08.986Z,-3.64
2022-11-16T22:21:36.667Z,-3.60
2022-11-16T22:24:03.370Z,-3.61
2022-11-16T22:26:30.015Z,-3.56
2022-11-16T22:28:58.144Z,-3.52
2022-11-16T22:31:25.162Z,-3.67
2022-11-16T22:33:53.644Z,-3.60
2022-11-16T22:36:23.563Z,-3.84
2022-11-16T22:38:50.269Z,-3.61
2022-11-16T22:41:16.881Z,-3.63
2022-11-16T22:43:43.469Z,-3.70
2022-11-16T22:46:10.983Z,-3.80
2022-11-16T22:48:42.586Z,-3.76
2022-11-16T22:51:18.483Z,-3.74
2022-11-16T22:53:45.240Z,-3.78
2022-11-16T22:56:12.544Z,-3.85
2022-11-16T22:58:40.668Z,-3.96
2022-11-16T23:01:08.618Z,-3.87
2022-11-16T23:03:38.082Z,-3.92
2022-11-16T23:06:07.721Z,-3.95
2022-11-16T23:08:35.252Z,-3.94
2022-11-16T23:11:23.454Z,-3.80
2022-11-16T23:14:10.430Z,-3.84
2022-11-16T23:16:38.356Z,-3.85
2022-11-16T23:19:26.371Z,-3.87
2022-11-16T23:22:11.736Z,-3.82
2022-11-16T23:24:57.311Z,-3.78
2022-11-16T23:27:32.767Z,-3.93
2022-11-16T23:30:10.755Z,-4.05
2022-11-16T23:32:38.997Z,-4.04
2022-11-16T23:35:06.082Z,-4.13
2022-11-16T23:37:32.672Z,-3.98
2022-11-16T23:40:00.530Z,-3.96
2022-11-16T23:42:45.498Z,-4.01
2022-11-16T23:45:12.125Z,-4.06
2022-11-16T23:47:38.679Z,-4.05
2022-11-16T23:50:05.685Z,-4.05
2022-11-16T23:52:32.837Z,-4.00
2022-11-16T23:55:01.601Z,-4.09
2022-11-16T23:57:30.492Z,-3.97
2022-11-16T23:59:57.807Z,-3.87
